sensor_id;sensor_type;location;lat;lon;timestamp;P1;P2;P0
59546;PMS5003;45368;55.002;-1.592;2023-05-10T00:01:44;7;7;
59546;PMS5003;45368;55.002;-1.592;2023-05-10T00:04:12;4;4;
59546;PMS5003;45368;55.002;-1.592;2023-05-10T00:06:40;6;4;
59546;PMS5003;45368;55.002;-1.592;2023-05-10T00:09:06;6;4;
59546;PMS5003;45368;55.002;-1.592;2023-05-10T00:11:33;9;6;
59546;PMS5003;45368;55.002;-1.592;2023-05-10T00:14:00;6;3;
59546;PMS5003;45368;55.002;-1.592;2023-05-10T00:16:27;8;6;
59546;PMS5003;45368;55.002;-1.592;2023-05-10T00:18:54;3;3;
59546;PMS5003;45368;55.002;-1.592;2023-05-10T00:21:22;8;5;
59546;PMS5003;45368;55.002;-1.592;2023-05-10T00:23:49;5;5;
59546;PMS5003;45368;55.002;-1.592;2023-05-10T00:26:16;6;5;
59546;PMS5003;45368;55.002;-1.592;2023-05-10T00:28:43;8;6;
59546;PMS5003;45368;55.002;-1.592;2023-05-10T00:31:10;7;5;
59546;PMS5003;45368;55.002;-1.592;2023-05-10T00:33:38;7;5;
59546;PMS5003;45368;55.002;-1.592;2023-05-10T00:36:05;7;6;
59546;PMS5003;45368;55.002;-1.592;2023-05-10T00:38:33;5;5;
59546;PMS5003;45368;55.002;-1.592;2023-05-10T00:41:00;5;5;
59546;PMS5003;45368;55.002;-1.592;2023-05-10T00:43:27;8;5;
59546;PMS5003;45368;55.002;-1.592;2023-05-10T00:45:54;6;5;
59546;PMS5003;45368;55.002;-1.592;2023-05-10T00:48:22;10;6;
59546;PMS5003;45368;55.002;-1.592;2023-05-10T00:50:49;8;7;
59546;PMS5003;45368;55.002;-1.592;2023-05-10T00:53:17;10;6;
59546;PMS5003;45368;55.002;-1.592;2023-05-10T00:55:45;7;5;
59546;PMS5003;45368;55.002;-1.592;2023-05-10T00:58:12;6;6;
59546;PMS5003;45368;55.002;-1.592;2023-05-10T01:00:46;8;8;
59546;PMS5003;45368;55.002;-1.592;2023-05-10T01:03:14;8;6;
59546;PMS5003;45368;55.002;-1.592;2023-05-10T01:05:41;7;5;
59546;PMS5003;45368;55.002;-1.592;2023-05-10T01:08:09;7;6;
59546;PMS5003;45368;55.002;-1.592;2023-05-10T01:10:37;13;11;
59546;PMS5003;45368;55.002;-1.592;2023-05-10T01:13:04;7;5;
59546;PMS5003;45368;55.002;-1.592;2023-05-10T01:15:31;16;11;
59546;PMS5003;45368;55.002;-1.592;2023-05-10T01:17:59;8;7;
59546;PMS5003;45368;55.002;-1.592;2023-05-10T01:20:28;7;7;
59546;PMS5003;45368;55.002;-1.592;2023-05-10T01:23:20;8;7;
59546;PMS5003;45368;55.002;-1.592;2023-05-10T01:26:07;9;6;
59546;PMS5003;45368;55.002;-1.592;2023-05-10T01:28:57;7;6;
59546;PMS5003;45368;55.002;-1.592;2023-05-10T01:31:52;8;6;
59546;PMS5003;45368;55.002;-1.592;2023-05-10T01:34:59;6;6;
59546;PMS5003;45368;55.002;-1.592;2023-05-10T01:37:35;7;6;
59546;PMS5003;45368;55.002;-1.592;2023-05-10T01:40:09;7;6;
59546;PMS5003;45368;55.002;-1.592;2023-05-10T01:42:45;12;10;
59546;PMS5003;45368;55.002;-1.592;2023-05-10T01:45:18;9;6;
59546;PMS5003;45368;55.002;-1.592;2023-05-10T01:47:53;10;8;
59546;PMS5003;45368;55.002;-1.592;2023-05-10T01:50:29;7;6;
59546;PMS5003;45368;55.002;-1.592;2023-05-10T01:52:58;7;7;
59546;PMS5003;45368;55.002;-1.592;2023-05-10T01:55:28;8;8;
59546;PMS5003;45368;55.002;-1.592;2023-05-10T01:58:00;10;10;
59546;PMS5003;45368;55.002;-1.592;2023-05-10T02:00:31;9;7;
59546;PMS5003;45368;55.002;-1.592;2023-05-10T02:03:01;10;7;
59546;PMS5003;45368;55.002;-1.592;2023-05-10T02:05:32;8;8;
59546;PMS5003;45368;55.002;-1.592;2023-05-10T02:08:03;7;7;
59546;PMS5003;45368;55.002;-1.592;2023-05-10T02:10:33;7;5;
59546;PMS5003;45368;55.002;-1.592;2023-05-10T02:13:02;8;8;
59546;PMS5003;45368;55.002;-1.592;2023-05-10T02:15:32;8;6;
59546;PMS5003;45368;55.002;-1.592;2023-05-10T02:18:00;8;7;
59546;PMS5003;45368;55.002;-1.592;2023-05-10T02:20:30;8;6;
59546;PMS5003;45368;55.002;-1.592;2023-05-10T02:22:59;9;8;
59546;PMS5003;45368;55.002;-1.592;2023-05-10T02:25:28;10;9;
59546;PMS5003;45368;55.002;-1.592;2023-05-10T02:27:57;6;6;
59546;PMS5003;45368;55.002;-1.592;2023-05-10T02:30:26;11;10;
59546;PMS5003;45368;55.002;-1.592;2023-05-10T02:32:55;7;6;
59546;PMS5003;45368;55.002;-1.592;2023-05-10T02:35:23;12;11;
59546;PMS5003;45368;55.002;-1.592;2023-05-10T02:37:52;7;6;
59546;PMS5003;45368;55.002;-1.592;2023-05-10T02:40:21;8;7;
59546;PMS5003;45368;55.002;-1.592;2023-05-10T02:42:50;9;8;
59546;PMS5003;45368;55.002;-1.592;2023-05-10T02:45:21;7;6;
59546;PMS5003;45368;55.002;-1.592;2023-05-10T02:47:53;14;11;
59546;PMS5003;45368;55.002;-1.592;2023-05-10T02:50:21;10;8;
59546;PMS5003;45368;55.002;-1.592;2023-05-10T02:52:53;10;7;
59546;PMS5003;45368;55.002;-1.592;2023-05-10T02:55:26;8;7;
59546;PMS5003;45368;55.002;-1.592;2023-05-10T02:58:00;9;8;
59546;PMS5003;45368;55.002;-1.592;2023-05-10T03:00:29;8;7;
59546;PMS5003;45368;55.002;-1.592;2023-05-10T03:02:55;8;8;
59546;PMS5003;45368;55.002;-1.592;2023-05-10T03:05:27;11;7;
59546;PMS5003;45368;55.002;-1.592;2023-05-10T03:07:54;7;6;
59546;PMS5003;45368;55.002;-1.592;2023-05-10T03:10:22;9;8;
59546;PMS5003;45368;55.002;-1.592;2023-05-10T03:12:58;7;6;
59546;PMS5003;45368;55.002;-1.592;2023-05-10T03:15:37;8;6;
59546;PMS5003;45368;55.002;-1.592;2023-05-10T03:18:13;6;6;
59546;PMS5003;45368;55.002;-1.592;2023-05-10T03:20:47;7;5;
59546;PMS5003;45368;55.002;-1.592;2023-05-10T03:23:20;8;8;
59546;PMS5003;45368;55.002;-1.592;2023-05-10T03:25:51;8;7;
59546;PMS5003;45368;55.002;-1.592;2023-05-10T03:28:20;7;6;
59546;PMS5003;45368;55.002;-1.592;2023-05-10T03:30:48;8;8;
59546;PMS5003;45368;55.002;-1.592;2023-05-10T03:33:18;9;8;
59546;PMS5003;45368;55.002;-1.592;2023-05-10T03:35:46;11;8;
59546;PMS5003;45368;55.002;-1.592;2023-05-10T03:38:14;7;7;
59546;PMS5003;45368;55.002;-1.592;2023-05-10T03:40:41;10;8;
59546;PMS5003;45368;55.002;-1.592;2023-05-10T03:43:08;10;8;
59546;PMS5003;45368;55.002;-1.592;2023-05-10T03:45:35;7;7;
59546;PMS5003;45368;55.002;-1.592;2023-05-10T03:48:02;9;7;
59546;PMS5003;45368;55.002;-1.592;2023-05-10T03:50:29;8;4;
59546;PMS5003;45368;55.002;-1.592;2023-05-10T03:52:56;7;6;
59546;PMS5003;45368;55.002;-1.592;2023-05-10T03:55:23;6;6;
59546;PMS5003;45368;55.002;-1.592;2023-05-10T03:57:50;8;6;
59546;PMS5003;45368;55.002;-1.592;2023-05-10T04:00:18;8;7;
59546;PMS5003;45368;55.002;-1.592;2023-05-10T04:02:45;8;6;
59546;PMS5003;45368;55.002;-1.592;2023-05-10T04:05:12;8;6;
59546;PMS5003;45368;55.002;-1.592;2023-05-10T04:07:40;7;6;
59546;PMS5003;45368;55.002;-1.592;2023-05-10T04:10:07;11;9;
59546;PMS5003;45368;55.002;-1.592;2023-05-10T04:12:34;9;8;
59546;PMS5003;45368;55.002;-1.592;2023-05-10T04:15:01;8;7;
59546;PMS5003;45368;55.002;-1.592;2023-05-10T04:17:29;9;7;
59546;PMS5003;45368;55.002;-1.592;2023-05-10T04:19:56;8;8;
59546;PMS5003;45368;55.002;-1.592;2023-05-10T04:22:23;8;8;
59546;PMS5003;45368;55.002;-1.592;2023-05-10T04:24:50;13;9;
59546;PMS5003;45368;55.002;-1.592;2023-05-10T04:27:17;9;7;
59546;PMS5003;45368;55.002;-1.592;2023-05-10T04:29:44;8;7;
59546;PMS5003;45368;55.002;-1.592;2023-05-10T04:32:11;9;7;
59546;PMS5003;45368;55.002;-1.592;2023-05-10T04:34:38;10;9;
59546;PMS5003;45368;55.002;-1.592;2023-05-10T04:37:05;7;7;
59546;PMS5003;45368;55.002;-1.592;2023-05-10T04:39:32;12;11;
59546;PMS5003;45368;55.002;-1.592;2023-05-10T04:41:58;9;8;
59546;PMS5003;45368;55.002;-1.592;2023-05-10T04:44:25;10;8;
59546;PMS5003;45368;55.002;-1.592;2023-05-10T04:46:52;9;8;
59546;PMS5003;45368;55.002;-1.592;2023-05-10T04:49:19;8;6;
59546;PMS5003;45368;55.002;-1.592;2023-05-10T04:51:46;7;7;
59546;PMS5003;45368;55.002;-1.592;2023-05-10T04:54:13;10;7;
59546;PMS5003;45368;55.002;-1.592;2023-05-10T04:56:40;5;5;
59546;PMS5003;45368;55.002;-1.592;2023-05-10T04:59:08;10;7;
59546;PMS5003;45368;55.002;-1.592;2023-05-10T05:01:35;9;8;
59546;PMS5003;45368;55.002;-1.592;2023-05-10T05:04:02;7;7;
59546;PMS5003;45368;55.002;-1.592;2023-05-10T05:06:30;7;7;
59546;PMS5003;45368;55.002;-1.592;2023-05-10T05:08:57;6;5;
59546;PMS5003;45368;55.002;-1.592;2023-05-10T05:11:24;11;10;
59546;PMS5003;45368;55.002;-1.592;2023-05-10T05:13:51;9;8;
59546;PMS5003;45368;55.002;-1.592;2023-05-10T05:16:18;9;9;
59546;PMS5003;45368;55.002;-1.592;2023-05-10T05:18:45;8;7;
59546;PMS5003;45368;55.002;-1.592;2023-05-10T05:21:15;11;10;
59546;PMS5003;45368;55.002;-1.592;2023-05-10T05:23:43;10;10;
59546;PMS5003;45368;55.002;-1.592;2023-05-10T05:26:10;11;9;
59546;PMS5003;45368;55.002;-1.592;2023-05-10T05:28:38;9;8;
59546;PMS5003;45368;55.002;-1.592;2023-05-10T05:31:05;9;9;
59546;PMS5003;45368;55.002;-1.592;2023-05-10T05:33:33;11;10;
59546;PMS5003;45368;55.002;-1.592;2023-05-10T05:36:01;12;10;
59546;PMS5003;45368;55.002;-1.592;2023-05-10T05:38:29;13;11;
59546;PMS5003;45368;55.002;-1.592;2023-05-10T05:40:56;11;10;
59546;PMS5003;45368;55.002;-1.592;2023-05-10T05:43:24;14;10;
59546;PMS5003;45368;55.002;-1.592;2023-05-10T05:45:51;11;10;
59546;PMS5003;45368;55.002;-1.592;2023-05-10T05:48:19;18;11;
59546;PMS5003;45368;55.002;-1.592;2023-05-10T05:50:46;9;9;
59546;PMS5003;45368;55.002;-1.592;2023-05-10T05:53:13;12;12;
59546;PMS5003;45368;55.002;-1.592;2023-05-10T05:55:40;11;10;
59546;PMS5003;45368;55.002;-1.592;2023-05-10T05:58:17;10;10;
59546;PMS5003;45368;55.002;-1.592;2023-05-10T06:00:44;9;9;
59546;PMS5003;45368;55.002;-1.592;2023-05-10T06:03:12;12;11;
59546;PMS5003;45368;55.002;-1.592;2023-05-10T06:05:39;11;9;
59546;PMS5003;45368;55.002;-1.592;2023-05-10T06:08:06;7;7;
59546;PMS5003;45368;55.002;-1.592;2023-05-10T06:10:33;12;10;
59546;PMS5003;45368;55.002;-1.592;2023-05-10T06:13:00;10;9;
59546;PMS5003;45368;55.002;-1.592;2023-05-10T06:15:29;7;7;
59546;PMS5003;45368;55.002;-1.592;2023-05-10T06:17:55;8;8;
59546;PMS5003;45368;55.002;-1.592;2023-05-10T06:20:23;9;8;
59546;PMS5003;45368;55.002;-1.592;2023-05-10T06:22:50;10;9;
59546;PMS5003;45368;55.002;-1.592;2023-05-10T06:25:17;9;8;
59546;PMS5003;45368;55.002;-1.592;2023-05-10T06:27:45;7;7;
59546;PMS5003;45368;55.002;-1.592;2023-05-10T06:30:13;12;9;
59546;PMS5003;45368;55.002;-1.592;2023-05-10T06:32:40;11;8;
59546;PMS5003;45368;55.002;-1.592;2023-05-10T06:35:08;12;11;
59546;PMS5003;45368;55.002;-1.592;2023-05-10T06:37:35;7;6;
59546;PMS5003;45368;55.002;-1.592;2023-05-10T06:40:08;7;5;
59546;PMS5003;45368;55.002;-1.592;2023-05-10T06:42:35;7;7;
59546;PMS5003;45368;55.002;-1.592;2023-05-10T06:45:02;5;5;
59546;PMS5003;45368;55.002;-1.592;2023-05-10T06:47:30;6;6;
59546;PMS5003;45368;55.002;-1.592;2023-05-10T06:49:57;4;4;
59546;PMS5003;45368;55.002;-1.592;2023-05-10T06:52:25;5;4;
59546;PMS5003;45368;55.002;-1.592;2023-05-10T06:54:52;6;5;
59546;PMS5003;45368;55.002;-1.592;2023-05-10T06:57:19;4;3;
59546;PMS5003;45368;55.002;-1.592;2023-05-10T06:59:46;6;6;
59546;PMS5003;45368;55.002;-1.592;2023-05-10T07:02:13;5;2;
59546;PMS5003;45368;55.002;-1.592;2023-05-10T07:04:41;4;3;
59546;PMS5003;45368;55.002;-1.592;2023-05-10T07:07:08;4;3;
59546;PMS5003;45368;55.002;-1.592;2023-05-10T07:09:35;4;3;
59546;PMS5003;45368;55.002;-1.592;2023-05-10T07:12:02;2;1;
59546;PMS5003;45368;55.002;-1.592;2023-05-10T07:14:30;2;1;
59546;PMS5003;45368;55.002;-1.592;2023-05-10T07:16:57;2;1;
59546;PMS5003;45368;55.002;-1.592;2023-05-10T07:19:24;3;2;
59546;PMS5003;45368;55.002;-1.592;2023-05-10T07:21:52;4;4;
59546;PMS5003;45368;55.002;-1.592;2023-05-10T07:24:19;5;3;
59546;PMS5003;45368;55.002;-1.592;2023-05-10T07:26:46;5;3;
59546;PMS5003;45368;55.002;-1.592;2023-05-10T07:29:14;3;2;
59546;PMS5003;45368;55.002;-1.592;2023-05-10T07:31:41;4;3;
59546;PMS5003;45368;55.002;-1.592;2023-05-10T07:34:08;2;2;
59546;PMS5003;45368;55.002;-1.592;2023-05-10T07:36:37;2;1;
59546;PMS5003;45368;55.002;-1.592;2023-05-10T07:39:04;0;0;
59546;PMS5003;45368;55.002;-1.592;2023-05-10T07:41:32;2;2;
59546;PMS5003;45368;55.002;-1.592;2023-05-10T07:44:00;1;1;
59546;PMS5003;45368;55.002;-1.592;2023-05-10T07:46:27;3;0;
59546;PMS5003;45368;55.002;-1.592;2023-05-10T07:48:54;2;1;
59546;PMS5003;45368;55.002;-1.592;2023-05-10T07:51:22;2;0;
59546;PMS5003;45368;55.002;-1.592;2023-05-10T07:53:49;3;2;
59546;PMS5003;45368;55.002;-1.592;2023-05-10T07:56:21;2;2;
59546;PMS5003;45368;55.002;-1.592;2023-05-10T07:58:51;4;1;
59546;PMS5003;45368;55.002;-1.592;2023-05-10T08:01:18;0;0;
59546;PMS5003;45368;55.002;-1.592;2023-05-10T08:03:46;0;0;
59546;PMS5003;45368;55.002;-1.592;2023-05-10T08:06:14;0;0;
59546;PMS5003;45368;55.002;-1.592;2023-05-10T08:08:41;1;1;
59546;PMS5003;45368;55.002;-1.592;2023-05-10T08:11:08;2;2;
59546;PMS5003;45368;55.002;-1.592;2023-05-10T08:13:36;3;2;
59546;PMS5003;45368;55.002;-1.592;2023-05-10T08:16:03;3;2;
59546;PMS5003;45368;55.002;-1.592;2023-05-10T08:18:31;2;0;
59546;PMS5003;45368;55.002;-1.592;2023-05-10T08:20:58;1;1;
59546;PMS5003;45368;55.002;-1.592;2023-05-10T08:23:26;0;0;
59546;PMS5003;45368;55.002;-1.592;2023-05-10T08:25:54;1;1;
59546;PMS5003;45368;55.002;-1.592;2023-05-10T08:28:21;0;0;
59546;PMS5003;45368;55.002;-1.592;2023-05-10T08:30:49;3;2;
59546;PMS5003;45368;55.002;-1.592;2023-05-10T08:33:17;1;1;
59546;PMS5003;45368;55.002;-1.592;2023-05-10T08:35:44;0;0;
59546;PMS5003;45368;55.002;-1.592;2023-05-10T08:38:12;1;0;
59546;PMS5003;45368;55.002;-1.592;2023-05-10T08:40:39;2;1;
59546;PMS5003;45368;55.002;-1.592;2023-05-10T08:43:10;1;1;
59546;PMS5003;45368;55.002;-1.592;2023-05-10T08:45:39;0;0;
59546;PMS5003;45368;55.002;-1.592;2023-05-10T08:48:07;1;0;
59546;PMS5003;45368;55.002;-1.592;2023-05-10T08:50:35;2;2;
59546;PMS5003;45368;55.002;-1.592;2023-05-10T08:53:04;0;0;
59546;PMS5003;45368;55.002;-1.592;2023-05-10T08:55:35;2;1;
59546;PMS5003;45368;55.002;-1.592;2023-05-10T08:58:03;1;1;
59546;PMS5003;45368;55.002;-1.592;2023-05-10T09:00:31;2;1;
59546;PMS5003;45368;55.002;-1.592;2023-05-10T09:02:58;2;0;
59546;PMS5003;45368;55.002;-1.592;2023-05-10T09:05:26;2;1;
59546;PMS5003;45368;55.002;-1.592;2023-05-10T09:07:53;1;1;
59546;PMS5003;45368;55.002;-1.592;2023-05-10T09:10:21;2;1;
59546;PMS5003;45368;55.002;-1.592;2023-05-10T09:12:51;2;1;
59546;PMS5003;45368;55.002;-1.592;2023-05-10T09:15:19;1;1;
59546;PMS5003;45368;55.002;-1.592;2023-05-10T09:17:47;2;0;
59546;PMS5003;45368;55.002;-1.592;2023-05-10T09:20:16;1;1;
59546;PMS5003;45368;55.002;-1.592;2023-05-10T09:22:44;1;1;
59546;PMS5003;45368;55.002;-1.592;2023-05-10T09:25:13;0;0;
59546;PMS5003;45368;55.002;-1.592;2023-05-10T09:27:44;0;0;
59546;PMS5003;45368;55.002;-1.592;2023-05-10T09:30:15;0;0;
59546;PMS5003;45368;55.002;-1.592;2023-05-10T09:32:44;1;1;
59546;PMS5003;45368;55.002;-1.592;2023-05-10T09:35:13;1;1;
59546;PMS5003;45368;55.002;-1.592;2023-05-10T09:37:42;0;0;
59546;PMS5003;45368;55.002;-1.592;2023-05-10T09:40:11;0;0;
59546;PMS5003;45368;55.002;-1.592;2023-05-10T09:42:40;0;0;
59546;PMS5003;45368;55.002;-1.592;2023-05-10T09:45:08;2;1;
59546;PMS5003;45368;55.002;-1.592;2023-05-10T09:47:36;0;0;
59546;PMS5003;45368;55.002;-1.592;2023-05-10T09:50:04;0;0;
59546;PMS5003;45368;55.002;-1.592;2023-05-10T09:52:45;0;0;
59546;PMS5003;45368;55.002;-1.592;2023-05-10T09:55:14;0;0;
59546;PMS5003;45368;55.002;-1.592;2023-05-10T09:57:41;0;0;
59546;PMS5003;45368;55.002;-1.592;2023-05-10T10:00:08;0;0;
59546;PMS5003;45368;55.002;-1.592;2023-05-10T10:02:35;0;0;
59546;PMS5003;45368;55.002;-1.592;2023-05-10T10:05:03;0;0;
59546;PMS5003;45368;55.002;-1.592;2023-05-10T10:07:33;1;1;
59546;PMS5003;45368;55.002;-1.592;2023-05-10T10:10:01;1;1;
59546;PMS5003;45368;55.002;-1.592;2023-05-10T10:12:29;1;0;
59546;PMS5003;45368;55.002;-1.592;2023-05-10T10:14:56;2;1;
59546;PMS5003;45368;55.002;-1.592;2023-05-10T10:17:26;0;0;
59546;PMS5003;45368;55.002;-1.592;2023-05-10T10:19:54;0;0;
59546;PMS5003;45368;55.002;-1.592;2023-05-10T10:22:23;0;0;
59546;PMS5003;45368;55.002;-1.592;2023-05-10T10:24:50;0;0;
59546;PMS5003;45368;55.002;-1.592;2023-05-10T10:27:20;0;0;
59546;PMS5003;45368;55.002;-1.592;2023-05-10T10:29:58;1;0;
59546;PMS5003;45368;55.002;-1.592;2023-05-10T10:32:35;0;0;
59546;PMS5003;45368;55.002;-1.592;2023-05-10T10:35:15;0;0;
59546;PMS5003;45368;55.002;-1.592;2023-05-10T10:37:43;0;0;
59546;PMS5003;45368;55.002;-1.592;2023-05-10T10:40:22;0;0;
59546;PMS5003;45368;55.002;-1.592;2023-05-10T10:42:52;0;0;
59546;PMS5003;45368;55.002;-1.592;2023-05-10T10:45:20;0;0;
59546;PMS5003;45368;55.002;-1.592;2023-05-10T10:47:48;0;0;
59546;PMS5003;45368;55.002;-1.592;2023-05-10T10:50:20;0;0;
59546;PMS5003;45368;55.002;-1.592;2023-05-10T10:52:47;0;0;
59546;PMS5003;45368;55.002;-1.592;2023-05-10T10:55:18;0;0;
59546;PMS5003;45368;55.002;-1.592;2023-05-10T10:57:47;0;0;
59546;PMS5003;45368;55.002;-1.592;2023-05-10T11:00:24;0;0;
59546;PMS5003;45368;55.002;-1.592;2023-05-10T11:02:56;0;0;
59546;PMS5003;45368;55.002;-1.592;2023-05-10T11:05:25;0;0;
59546;PMS5003;45368;55.002;-1.592;2023-05-10T11:08:07;0;0;
59546;PMS5003;45368;55.002;-1.592;2023-05-10T11:10:36;0;0;
59546;PMS5003;45368;55.002;-1.592;2023-05-10T11:13:04;0;0;
59546;PMS5003;45368;55.002;-1.592;2023-05-10T11:15:34;0;0;
59546;PMS5003;45368;55.002;-1.592;2023-05-10T11:18:23;0;0;
59546;PMS5003;45368;55.002;-1.592;2023-05-10T11:20:52;0;0;
59546;PMS5003;45368;55.002;-1.592;2023-05-10T11:23:29;0;0;
59546;PMS5003;45368;55.002;-1.592;2023-05-10T11:25:57;0;0;
59546;PMS5003;45368;55.002;-1.592;2023-05-10T11:28:26;0;0;
59546;PMS5003;45368;55.002;-1.592;2023-05-10T11:30:53;0;0;
59546;PMS5003;45368;55.002;-1.592;2023-05-10T11:33:21;0;0;
59546;PMS5003;45368;55.002;-1.592;2023-05-10T11:35:49;0;0;
59546;PMS5003;45368;55.002;-1.592;2023-05-10T11:38:17;0;0;
59546;PMS5003;45368;55.002;-1.592;2023-05-10T11:40:44;0;0;
59546;PMS5003;45368;55.002;-1.592;2023-05-10T11:43:12;0;0;
59546;PMS5003;45368;55.002;-1.592;2023-05-10T11:45:40;2;1;
59546;PMS5003;45368;55.002;-1.592;2023-05-10T11:48:08;0;0;
59546;PMS5003;45368;55.002;-1.592;2023-05-10T11:50:36;1;0;
59546;PMS5003;45368;55.002;-1.592;2023-05-10T11:53:03;0;0;
59546;PMS5003;45368;55.002;-1.592;2023-05-10T11:55:33;0;0;
59546;PMS5003;45368;55.002;-1.592;2023-05-10T11:58:01;0;0;
59546;PMS5003;45368;55.002;-1.592;2023-05-10T12:00:28;0;0;
59546;PMS5003;45368;55.002;-1.592;2023-05-10T12:02:57;0;0;
59546;PMS5003;45368;55.002;-1.592;2023-05-10T12:05:24;0;0;
59546;PMS5003;45368;55.002;-1.592;2023-05-10T12:07:52;0;0;
59546;PMS5003;45368;55.002;-1.592;2023-05-10T12:10:25;0;0;
59546;PMS5003;45368;55.002;-1.592;2023-05-10T12:12:53;0;0;
59546;PMS5003;45368;55.002;-1.592;2023-05-10T12:15:20;0;0;
59546;PMS5003;45368;55.002;-1.592;2023-05-10T12:17:49;0;0;
59546;PMS5003;45368;55.002;-1.592;2023-05-10T12:20:17;0;0;
59546;PMS5003;45368;55.002;-1.592;2023-05-10T12:22:46;0;0;
59546;PMS5003;45368;55.002;-1.592;2023-05-10T12:25:15;0;0;
59546;PMS5003;45368;55.002;-1.592;2023-05-10T12:27:51;0;0;
59546;PMS5003;45368;55.002;-1.592;2023-05-10T12:30:20;0;0;
59546;PMS5003;45368;55.002;-1.592;2023-05-10T12:32:49;0;0;
59546;PMS5003;45368;55.002;-1.592;2023-05-10T12:35:16;0;0;
59546;PMS5003;45368;55.002;-1.592;2023-05-10T12:37:44;0;0;
59546;PMS5003;45368;55.002;-1.592;2023-05-10T12:40:12;1;0;
59546;PMS5003;45368;55.002;-1.592;2023-05-10T12:42:39;0;0;
59546;PMS5003;45368;55.002;-1.592;2023-05-10T12:45:07;0;0;
59546;PMS5003;45368;55.002;-1.592;2023-05-10T12:47:35;0;0;
59546;PMS5003;45368;55.002;-1.592;2023-05-10T12:50:08;0;0;
59546;PMS5003;45368;55.002;-1.592;2023-05-10T12:52:35;0;0;
59546;PMS5003;45368;55.002;-1.592;2023-05-10T12:55:03;0;0;
59546;PMS5003;45368;55.002;-1.592;2023-05-10T12:57:30;0;0;
59546;PMS5003;45368;55.002;-1.592;2023-05-10T12:59:58;0;0;
59546;PMS5003;45368;55.002;-1.592;2023-05-10T13:02:26;0;0;
59546;PMS5003;45368;55.002;-1.592;2023-05-10T13:04:53;0;0;
59546;PMS5003;45368;55.002;-1.592;2023-05-10T13:07:20;0;0;
59546;PMS5003;45368;55.002;-1.592;2023-05-10T13:09:47;0;0;
59546;PMS5003;45368;55.002;-1.592;2023-05-10T13:12:15;0;0;
59546;PMS5003;45368;55.002;-1.592;2023-05-10T13:14:42;0;0;
59546;PMS5003;45368;55.002;-1.592;2023-05-10T13:17:10;0;0;
59546;PMS5003;45368;55.002;-1.592;2023-05-10T13:19:38;0;0;
59546;PMS5003;45368;55.002;-1.592;2023-05-10T13:22:05;0;0;
59546;PMS5003;45368;55.002;-1.592;2023-05-10T13:24:33;0;0;
59546;PMS5003;45368;55.002;-1.592;2023-05-10T13:27:01;0;0;
59546;PMS5003;45368;55.002;-1.592;2023-05-10T13:29:28;0;0;
59546;PMS5003;45368;55.002;-1.592;2023-05-10T13:31:56;0;0;
59546;PMS5003;45368;55.002;-1.592;2023-05-10T13:34:24;0;0;
59546;PMS5003;45368;55.002;-1.592;2023-05-10T13:36:50;0;0;
59546;PMS5003;45368;55.002;-1.592;2023-05-10T13:39:18;0;0;
59546;PMS5003;45368;55.002;-1.592;2023-05-10T13:41:46;0;0;
59546;PMS5003;45368;55.002;-1.592;2023-05-10T13:44:14;0;0;
59546;PMS5003;45368;55.002;-1.592;2023-05-10T13:46:41;0;0;
59546;PMS5003;45368;55.002;-1.592;2023-05-10T13:49:09;0;0;
59546;PMS5003;45368;55.002;-1.592;2023-05-10T13:51:36;0;0;
59546;PMS5003;45368;55.002;-1.592;2023-05-10T13:54:04;0;0;
59546;PMS5003;45368;55.002;-1.592;2023-05-10T13:56:31;0;0;
59546;PMS5003;45368;55.002;-1.592;2023-05-10T13:58:58;0;0;
59546;PMS5003;45368;55.002;-1.592;2023-05-10T14:01:25;0;0;
59546;PMS5003;45368;55.002;-1.592;2023-05-10T14:03:53;0;0;
59546;PMS5003;45368;55.002;-1.592;2023-05-10T14:06:21;0;0;
59546;PMS5003;45368;55.002;-1.592;2023-05-10T14:08:48;0;0;
59546;PMS5003;45368;55.002;-1.592;2023-05-10T14:11:16;0;0;
59546;PMS5003;45368;55.002;-1.592;2023-05-10T14:13:44;0;0;
59546;PMS5003;45368;55.002;-1.592;2023-05-10T14:16:11;0;0;
59546;PMS5003;45368;55.002;-1.592;2023-05-10T14:18:39;0;0;
59546;PMS5003;45368;55.002;-1.592;2023-05-10T14:21:07;0;0;
59546;PMS5003;45368;55.002;-1.592;2023-05-10T14:23:35;1;1;
59546;PMS5003;45368;55.002;-1.592;2023-05-10T14:26:03;1;0;
59546;PMS5003;45368;55.002;-1.592;2023-05-10T14:28:31;0;0;
59546;PMS5003;45368;55.002;-1.592;2023-05-10T14:30:58;1;0;
59546;PMS5003;45368;55.002;-1.592;2023-05-10T14:33:25;0;0;
59546;PMS5003;45368;55.002;-1.592;2023-05-10T14:35:53;1;1;
59546;PMS5003;45368;55.002;-1.592;2023-05-10T14:38:21;0;0;
59546;PMS5003;45368;55.002;-1.592;2023-05-10T14:40:48;0;0;
59546;PMS5003;45368;55.002;-1.592;2023-05-10T14:43:16;1;0;
59546;PMS5003;45368;55.002;-1.592;2023-05-10T14:45:43;0;0;
59546;PMS5003;45368;55.002;-1.592;2023-05-10T14:48:15;0;0;
59546;PMS5003;45368;55.002;-1.592;2023-05-10T14:50:42;0;0;
59546;PMS5003;45368;55.002;-1.592;2023-05-10T14:53:10;1;1;
59546;PMS5003;45368;55.002;-1.592;2023-05-10T14:55:42;0;0;
59546;PMS5003;45368;55.002;-1.592;2023-05-10T14:58:10;0;0;
59546;PMS5003;45368;55.002;-1.592;2023-05-10T15:00:37;0;0;
59546;PMS5003;45368;55.002;-1.592;2023-05-10T15:03:04;0;0;
59546;PMS5003;45368;55.002;-1.592;2023-05-10T15:05:31;0;0;
59546;PMS5003;45368;55.002;-1.592;2023-05-10T15:07:58;0;0;
59546;PMS5003;45368;55.002;-1.592;2023-05-10T15:10:24;1;0;
59546;PMS5003;45368;55.002;-1.592;2023-05-10T15:12:51;0;0;
59546;PMS5003;45368;55.002;-1.592;2023-05-10T15:15:18;0;0;
59546;PMS5003;45368;55.002;-1.592;2023-05-10T15:17:47;0;0;
59546;PMS5003;45368;55.002;-1.592;2023-05-10T15:20:14;0;0;
59546;PMS5003;45368;55.002;-1.592;2023-05-10T15:22:41;1;1;
59546;PMS5003;45368;55.002;-1.592;2023-05-10T15:25:09;0;0;
59546;PMS5003;45368;55.002;-1.592;2023-05-10T15:27:37;0;0;
59546;PMS5003;45368;55.002;-1.592;2023-05-10T15:30:05;0;0;
59546;PMS5003;45368;55.002;-1.592;2023-05-10T15:32:33;0;0;
59546;PMS5003;45368;55.002;-1.592;2023-05-10T15:35:00;0;0;
59546;PMS5003;45368;55.002;-1.592;2023-05-10T15:37:27;0;0;
59546;PMS5003;45368;55.002;-1.592;2023-05-10T15:39:55;0;0;
59546;PMS5003;45368;55.002;-1.592;2023-05-10T15:42:23;1;0;
59546;PMS5003;45368;55.002;-1.592;2023-05-10T15:44:50;0;0;
59546;PMS5003;45368;55.002;-1.592;2023-05-10T15:47:17;2;2;
59546;PMS5003;45368;55.002;-1.592;2023-05-10T15:49:44;1;1;
59546;PMS5003;45368;55.002;-1.592;2023-05-10T15:52:12;2;2;
59546;PMS5003;45368;55.002;-1.592;2023-05-10T15:54:38;0;0;
59546;PMS5003;45368;55.002;-1.592;2023-05-10T15:57:05;1;1;
59546;PMS5003;45368;55.002;-1.592;2023-05-10T15:59:32;2;2;
59546;PMS5003;45368;55.002;-1.592;2023-05-10T16:02:00;1;1;
59546;PMS5003;45368;55.002;-1.592;2023-05-10T16:04:27;0;0;
59546;PMS5003;45368;55.002;-1.592;2023-05-10T16:06:55;1;0;
59546;PMS5003;45368;55.002;-1.592;2023-05-10T16:09:23;0;0;
59546;PMS5003;45368;55.002;-1.592;2023-05-10T16:11:51;0;0;
59546;PMS5003;45368;55.002;-1.592;2023-05-10T16:14:18;0;0;
59546;PMS5003;45368;55.002;-1.592;2023-05-10T16:16:46;1;1;
59546;PMS5003;45368;55.002;-1.592;2023-05-10T16:19:14;1;0;
59546;PMS5003;45368;55.002;-1.592;2023-05-10T16:21:41;1;1;
59546;PMS5003;45368;55.002;-1.592;2023-05-10T16:24:09;3;1;
59546;PMS5003;45368;55.002;-1.592;2023-05-10T16:26:37;1;0;
59546;PMS5003;45368;55.002;-1.592;2023-05-10T16:29:04;1;1;
59546;PMS5003;45368;55.002;-1.592;2023-05-10T16:31:32;2;1;
59546;PMS5003;45368;55.002;-1.592;2023-05-10T16:34:00;2;0;
59546;PMS5003;45368;55.002;-1.592;2023-05-10T16:36:27;2;1;
59546;PMS5003;45368;55.002;-1.592;2023-05-10T16:38:55;2;2;
59546;PMS5003;45368;55.002;-1.592;2023-05-10T16:41:23;1;1;